Time;durP1;ratioP1;P1;durP2;ratioP2;P2;SDS_P1;SDS_P2;PMS_P1;PMS_P2;Temp;Humidity;BMP_temperature;BMP_pressure;BME280_temperature;BME280_humidity;BME280_pressure;Samples;Min_cycle;Max_cycle;Signal;HPM_P1;HPM_P2
2021/12/04 00:01:41;;;;;;;32.17;23.17;;;;;;;;;;5022078;28;20442;-73
2021/12/04 00:04:07;;;;;;;24.30;20.93;;;;;;;;;;5023867;28;20211;-73
2021/12/04 00:06:37;;;;;;;27.27;21.50;;;;;;;;;;5028207;28;20573;-71
2021/12/04 00:09:04;;;;;;;26.03;21.57;;;;;;;;;;5021897;28;20194;-74
2021/12/04 00:11:30;;;;;;;27.80;23.00;;;;;;;;;;5023018;28;20496;-74
2021/12/04 00:13:55;;;;;;;29.13;22.07;;;;;;;;;;5022741;28;20442;-75
2021/12/04 00:16:21;;;;;;;27.50;22.50;;;;;;;;;;5035488;28;20493;-74
2021/12/04 00:18:46;;;;;;;30.70;22.27;;;;;;;;;;5027873;28;20185;-73
2021/12/04 00:21:11;;;;;;;32.00;23.40;;;;;;;;;;5027109;28;20633;-74
2021/12/04 00:23:36;;;;;;;26.90;22.40;;;;;;;;;;5019649;28;20211;-72
2021/12/04 00:26:04;;;;;;;28.20;23.03;;;;;;;;;;5022943;28;20189;-72
2021/12/04 00:28:29;;;;;;;29.67;23.17;;;;;;;;;;5025233;28;20176;-73
2021/12/04 00:30:55;;;;;;;30.30;22.10;;;;;;;;;;5021368;28;20434;-72
2021/12/04 00:33:23;;;;;;;28.80;22.40;;;;;;;;;;5020401;28;20258;-74
2021/12/04 00:35:57;;;;;;;26.20;21.97;;;;;;;;;;5023527;28;21769;-73
2021/12/04 00:51:33;;;;;;;26.90;20.37;;;;;;;;;;5020977;28;20430;-74
2021/12/04 00:53:59;;;;;;;24.80;20.67;;;;;;;;;;5023024;28;20797;-72
2021/12/04 00:56:24;;;;;;;28.50;20.30;;;;;;;;;;5024071;28;20471;-75
2021/12/04 00:58:50;;;;;;;23.67;19.50;;;;;;;;;;5027330;28;20527;-74
2021/12/04 01:01:16;;;;;;;22.90;19.90;;;;;;;;;;5016731;28;20190;-75
2021/12/04 01:03:41;;;;;;;20.53;17.97;;;;;;;;;;5020946;28;20266;-72
2021/12/04 01:06:06;;;;;;;22.43;18.20;;;;;;;;;;5018565;28;20438;-73
2021/12/04 01:08:32;;;;;;;21.30;18.53;;;;;;;;;;5024765;28;20656;-73
2021/12/04 01:10:57;;;;;;;20.27;18.07;;;;;;;;;;5027582;28;20206;-72
2021/12/04 01:13:22;;;;;;;21.40;18.67;;;;;;;;;;5020950;28;20208;-73
2021/12/04 01:15:48;;;;;;;19.70;17.07;;;;;;;;;;5016819;28;20218;-73
2021/12/04 01:18:13;;;;;;;20.37;18.17;;;;;;;;;;5028214;28;20233;-73
2021/12/04 01:20:39;;;;;;;21.73;18.20;;;;;;;;;;5029115;28;20183;-74
2021/12/04 01:23:04;;;;;;;23.27;19.60;;;;;;;;;;5027097;28;20194;-75
2021/12/04 01:25:30;;;;;;;22.00;18.30;;;;;;;;;;5024074;28;20176;-75
2021/12/04 01:27:55;;;;;;;22.70;19.07;;;;;;;;;;5022961;28;20222;-74
2021/12/04 01:30:20;;;;;;;23.80;20.23;;;;;;;;;;5024560;28;20184;-73
2021/12/04 01:32:46;;;;;;;25.00;20.33;;;;;;;;;;5029800;28;20792;-73
2021/12/04 01:35:11;;;;;;;24.87;21.07;;;;;;;;;;5027081;28;20206;-74
2021/12/04 01:37:37;;;;;;;28.23;20.87;;;;;;;;;;5024979;28;20261;-73
2021/12/04 01:40:03;;;;;;;26.70;20.83;;;;;;;;;;5032593;28;20195;-74
2021/12/04 01:42:31;;;;;;;25.80;21.87;;;;;;;;;;5026953;28;20196;-74
2021/12/04 01:44:57;;;;;;;30.60;23.37;;;;;;;;;;5021537;28;20523;-73
2021/12/04 01:47:22;;;;;;;29.80;22.33;;;;;;;;;;5025413;28;20447;-74
2021/12/04 01:49:52;;;;;;;35.20;24.27;;;;;;;;;;5027475;28;20278;-74
2021/12/04 01:52:18;;;;;;;25.97;21.10;;;;;;;;;;5035363;28;20187;-75
2021/12/04 01:54:43;;;;;;;28.63;21.73;;;;;;;;;;5022147;28;20834;-73
2021/12/04 01:57:08;;;;;;;26.53;21.17;;;;;;;;;;5025440;28;20463;-74
2021/12/04 01:59:34;;;;;;;27.47;21.67;;;;;;;;;;5023470;28;20636;-74
2021/12/04 02:02:00;;;;;;;26.47;21.17;;;;;;;;;;5023685;28;20184;-75
2021/12/04 02:04:25;;;;;;;27.90;22.20;;;;;;;;;;5024422;28;20212;-72
2021/12/04 02:06:50;;;;;;;28.23;22.33;;;;;;;;;;5026292;28;20994;-72
2021/12/04 02:09:16;;;;;;;28.43;21.80;;;;;;;;;;5024287;28;20658;-72
2021/12/04 02:11:41;;;;;;;28.70;21.80;;;;;;;;;;5025935;28;20230;-72
2021/12/04 02:14:07;;;;;;;27.63;20.00;;;;;;;;;;5026869;28;20200;-73
2021/12/04 02:16:33;;;;;;;29.63;21.60;;;;;;;;;;5027392;28;20668;-72
2021/12/04 02:18:58;;;;;;;25.93;19.40;;;;;;;;;;5030229;28;20176;-72
2021/12/04 02:21:26;;;;;;;24.00;18.93;;;;;;;;;;5028052;28;20652;-71
2021/12/04 02:23:52;;;;;;;26.03;20.27;;;;;;;;;;5027119;28;20500;-72
2021/12/04 02:26:17;;;;;;;28.40;20.77;;;;;;;;;;5027893;28;20533;-72
2021/12/04 02:28:43;;;;;;;29.53;21.87;;;;;;;;;;5027792;28;20438;-72
2021/12/04 02:31:09;;;;;;;26.73;20.30;;;;;;;;;;5023985;28;20848;-72
2021/12/04 02:33:34;;;;;;;31.13;20.60;;;;;;;;;;5026295;28;23615;-72
2021/12/04 02:36:02;;;;;;;29.70;21.17;;;;;;;;;;5025520;28;20277;-73
2021/12/04 02:38:27;;;;;;;29.30;20.63;;;;;;;;;;5032162;28;21484;-72
2021/12/04 02:40:54;;;;;;;27.13;19.80;;;;;;;;;;5028013;28;20487;-73
2021/12/04 02:43:20;;;;;;;27.93;20.00;;;;;;;;;;5022946;28;20222;-73
2021/12/04 02:45:45;;;;;;;25.67;18.97;;;;;;;;;;5020844;28;20438;-72
2021/12/04 02:48:11;;;;;;;29.43;20.87;;;;;;;;;;5027791;28;20190;-71
2021/12/04 02:50:36;;;;;;;28.90;21.00;;;;;;;;;;5023270;28;20191;-73
2021/12/04 02:53:02;;;;;;;29.37;20.80;;;;;;;;;;5022039;28;20435;-72
2021/12/04 02:55:27;;;;;;;26.07;19.07;;;;;;;;;;5025180;28;20235;-74
2021/12/04 02:57:52;;;;;;;28.10;20.20;;;;;;;;;;5020870;28;20200;-72
2021/12/04 03:00:19;;;;;;;24.33;19.30;;;;;;;;;;5026478;28;20325;-73
2021/12/04 03:02:45;;;;;;;25.97;18.83;;;;;;;;;;5015760;28;20192;-73
2021/12/04 03:05:11;;;;;;;22.10;17.83;;;;;;;;;;5025442;28;20523;-73
2021/12/04 03:07:37;;;;;;;24.00;17.60;;;;;;;;;;5021161;28;20181;-73
2021/12/04 03:10:04;;;;;;;25.40;17.70;;;;;;;;;;5021348;28;20540;-71
2021/12/04 03:12:29;;;;;;;30.57;19.10;;;;;;;;;;5025216;28;20192;-72
2021/12/04 03:14:55;;;;;;;23.40;18.57;;;;;;;;;;5027465;28;21138;-73
2021/12/04 03:17:22;;;;;;;26.00;19.10;;;;;;;;;;5020714;28;21802;-72
2021/12/04 03:19:51;;;;;;;24.53;18.13;;;;;;;;;;5019943;28;20275;-73
2021/12/04 03:22:18;;;;;;;28.07;20.13;;;;;;;;;;5023164;28;20517;-72
2021/12/04 03:24:44;;;;;;;28.30;18.67;;;;;;;;;;5023329;28;20536;-72
2021/12/04 03:27:09;;;;;;;24.70;17.63;;;;;;;;;;5026144;28;20869;-72
2021/12/04 03:29:40;;;;;;;20.50;15.90;;;;;;;;;;5025970;28;20222;-72
2021/12/04 03:40:37;;;;;;;25.47;17.47;;;;;;;;;;5019102;28;20513;-72
2021/12/04 03:43:03;;;;;;;22.73;17.27;;;;;;;;;;5021312;28;20957;-72
2021/12/04 03:45:29;;;;;;;25.03;18.83;;;;;;;;;;5024968;28;20450;-72
2021/12/04 03:48:03;;;;;;;24.20;19.33;;;;;;;;;;5029172;28;20790;-72
2021/12/04 03:50:31;;;;;;;29.73;17.60;;;;;;;;;;5024552;28;20530;-73
2021/12/04 03:52:57;;;;;;;29.13;19.47;;;;;;;;;;5029047;28;20431;-72
2021/12/04 03:55:25;;;;;;;22.53;18.10;;;;;;;;;;5027116;28;20468;-72
2021/12/04 03:57:50;;;;;;;24.23;18.20;;;;;;;;;;5023138;28;20553;-71
2021/12/04 04:00:15;;;;;;;23.90;18.80;;;;;;;;;;5025893;28;20653;-73
2021/12/04 04:02:41;;;;;;;24.17;19.00;;;;;;;;;;5024951;28;20196;-73
2021/12/04 04:05:06;;;;;;;25.10;19.40;;;;;;;;;;5028035;28;20799;-72
2021/12/04 04:07:32;;;;;;;25.20;18.27;;;;;;;;;;5030688;28;20176;-72
2021/12/04 04:09:57;;;;;;;23.20;18.90;;;;;;;;;;5047329;28;20204;-72
2021/12/04 04:12:22;;;;;;;22.90;17.53;;;;;;;;;;5028283;28;20214;-73
2021/12/04 04:14:47;;;;;;;23.77;18.43;;;;;;;;;;5033990;28;20219;-72
2021/12/04 04:17:13;;;;;;;22.27;17.67;;;;;;;;;;5025369;28;20207;-72
2021/12/04 04:19:38;;;;;;;21.17;17.10;;;;;;;;;;5023900;28;20183;-72
2021/12/04 04:22:04;;;;;;;21.90;18.47;;;;;;;;;;5023458;28;20688;-71
2021/12/04 04:24:31;;;;;;;21.03;17.37;;;;;;;;;;5030199;28;20200;-73
2021/12/04 04:26:56;;;;;;;23.30;17.97;;;;;;;;;;5023328;28;20184;-74
2021/12/04 04:29:22;;;;;;;22.87;19.27;;;;;;;;;;5024931;28;20518;-73
2021/12/04 04:31:50;;;;;;;23.10;17.67;;;;;;;;;;5025350;28;21958;-73
2021/12/04 05:13:02;;;;;;;16.63;13.27;;;;;;;;;;5032915;28;20793;-74
2021/12/04 05:15:13;;;;;;;15.47;11.00;;;;;;;;;;5028178;28;20463;-74
2021/12/04 05:20:08;;;;;;;17.30;12.33;;;;;;;;;;5033924;28;20442;-73
2021/12/04 05:22:33;;;;;;;12.87;11.00;;;;;;;;;;5029059;28;20479;-74
2021/12/04 05:24:58;;;;;;;16.40;12.10;;;;;;;;;;5028773;28;21085;-73
2021/12/04 05:27:24;;;;;;;14.70;11.10;;;;;;;;;;5027681;28;21178;-74
2021/12/04 05:29:49;;;;;;;15.47;11.00;;;;;;;;;;5029749;28;20398;-75
2021/12/04 05:32:16;;;;;;;11.27;10.13;;;;;;;;;;5045091;28;20192;-75
2021/12/04 05:34:41;;;;;;;13.70;11.53;;;;;;;;;;5031349;28;20227;-75
2021/12/04 05:37:07;;;;;;;12.30;11.00;;;;;;;;;;5033540;28;20460;-75
2021/12/04 05:39:32;;;;;;;13.57;11.57;;;;;;;;;;5030996;28;20732;-73
2021/12/04 05:41:59;;;;;;;13.03;10.80;;;;;;;;;;5030766;28;20180;-74
2021/12/04 05:44:26;;;;;;;15.00;11.60;;;;;;;;;;5030417;28;20673;-74
2021/12/04 05:47:07;;;;;;;13.43;11.33;;;;;;;;;;5033661;28;20467;-74
2021/12/04 05:55:10;;;;;;;11.80;10.30;;;;;;;;;;5029373;28;20945;-71
2021/12/04 05:57:36;;;;;;;13.90;10.90;;;;;;;;;;5036650;28;20418;-73
2021/12/04 06:00:01;;;;;;;16.87;11.70;;;;;;;;;;5031144;28;20808;-72
2021/12/04 06:02:26;;;;;;;13.90;11.07;;;;;;;;;;5032850;28;20181;-73
2021/12/04 06:04:52;;;;;;;15.13;11.10;;;;;;;;;;5030427;28;20220;-72
2021/12/04 06:07:17;;;;;;;13.20;10.77;;;;;;;;;;5024941;28;20202;-73
2021/12/04 06:09:42;;;;;;;13.00;10.40;;;;;;;;;;5030160;28;20537;-72
2021/12/04 06:12:08;;;;;;;13.83;10.70;;;;;;;;;;5025633;28;20180;-73
2021/12/04 06:14:33;;;;;;;13.00;10.37;;;;;;;;;;5031449;28;20196;-72
2021/12/04 06:16:59;;;;;;;15.03;10.80;;;;;;;;;;5030711;28;20640;-73
2021/12/04 06:22:37;;;;;;;12.67;10.87;;;;;;;;;;5036156;28;20322;-74
2021/12/04 06:24:53;;;;;;;13.63;10.57;;;;;;;;;;5028897;28;20591;-74
2021/12/04 06:27:19;;;;;;;12.20;10.07;;;;;;;;;;5031027;28;20447;-76
2021/12/04 06:29:44;;;;;;;13.80;11.83;;;;;;;;;;5034280;28;20250;-72
2021/12/04 06:32:09;;;;;;;14.13;9.83;;;;;;;;;;5031162;28;20968;-73
2021/12/04 06:34:34;;;;;;;13.03;9.67;;;;;;;;;;5034323;28;20479;-72
2021/12/04 06:37:00;;;;;;;15.43;10.40;;;;;;;;;;5034873;28;20211;-73
2021/12/04 06:39:25;;;;;;;11.87;9.30;;;;;;;;;;5033557;28;20259;-72
2021/12/04 06:41:50;;;;;;;15.10;9.60;;;;;;;;;;5036117;28;20207;-72
2021/12/04 06:44:16;;;;;;;14.50;10.70;;;;;;;;;;5038346;28;20199;-72
2021/12/04 06:46:42;;;;;;;13.40;10.20;;;;;;;;;;5036527;28;20195;-72
2021/12/04 06:49:16;;;;;;;10.70;9.60;;;;;;;;;;5038233;28;20240;-72
2021/12/04 06:51:46;;;;;;;11.00;8.73;;;;;;;;;;5036311;28;20179;-74
2021/12/04 06:54:21;;;;;;;10.47;9.37;;;;;;;;;;5034996;28;20451;-73
2021/12/04 06:56:46;;;;;;;12.17;9.43;;;;;;;;;;5032617;28;20555;-73
2021/12/04 06:59:16;;;;;;;15.50;10.97;;;;;;;;;;5035344;28;20497;-72
2021/12/04 07:01:41;;;;;;;13.40;9.20;;;;;;;;;;5032763;28;20172;-73
2021/12/04 07:04:07;;;;;;;12.53;11.20;;;;;;;;;;5030591;28;20465;-72
2021/12/04 07:06:32;;;;;;;11.83;9.07;;;;;;;;;;5034772;28;20199;-73
2021/12/04 07:08:58;;;;;;;10.53;9.43;;;;;;;;;;5034200;28;20637;-73
2021/12/04 07:11:24;;;;;;;11.80;9.40;;;;;;;;;;5030180;28;20381;-72
2021/12/04 07:13:49;;;;;;;13.80;10.00;;;;;;;;;;5033607;28;20204;-74
2021/12/04 07:16:17;;;;;;;10.30;9.23;;;;;;;;;;5032734;28;20192;-74
2021/12/04 07:18:42;;;;;;;13.37;9.67;;;;;;;;;;5034836;28;20663;-72
2021/12/04 07:21:07;;;;;;;9.60;8.63;;;;;;;;;;5032455;28;20422;-73
2021/12/04 07:23:33;;;;;;;11.93;9.77;;;;;;;;;;5025905;28;20325;-72
2021/12/04 07:25:58;;;;;;;9.80;8.70;;;;;;;;;;5028325;28;20276;-72
2021/12/04 07:28:24;;;;;;;10.07;8.53;;;;;;;;;;5023261;28;20674;-73
2021/12/04 07:30:49;;;;;;;11.23;9.23;;;;;;;;;;5028274;28;20190;-72
2021/12/04 07:33:15;;;;;;;10.33;9.00;;;;;;;;;;5025210;28;20192;-74
2021/12/04 07:35:40;;;;;;;11.57;8.77;;;;;;;;;;5029188;28;20233;-74
2021/12/04 07:38:06;;;;;;;14.80;9.60;;;;;;;;;;5027154;28;20773;-74
2021/12/04 07:40:31;;;;;;;10.30;8.50;;;;;;;;;;5031070;28;20191;-74
2021/12/04 07:42:57;;;;;;;11.60;9.00;;;;;;;;;;5033874;28;20186;-74
2021/12/04 07:45:22;;;;;;;14.27;9.03;;;;;;;;;;5030656;28;20215;-74
2021/12/04 07:47:47;;;;;;;11.87;9.40;;;;;;;;;;5033128;28;20208;-75
2021/12/04 07:50:13;;;;;;;14.50;8.60;;;;;;;;;;5029193;28;20183;-73
2021/12/04 07:52:39;;;;;;;10.47;9.40;;;;;;;;;;5028690;28;20201;-73
2021/12/04 07:55:06;;;;;;;10.07;9.00;;;;;;;;;;5028881;28;20459;-74
2021/12/04 07:57:31;;;;;;;11.23;9.30;;;;;;;;;;5031862;28;20178;-75
2021/12/04 07:59:56;;;;;;;9.70;8.70;;;;;;;;;;5031117;28;20422;-75
2021/12/04 08:02:22;;;;;;;10.67;9.00;;;;;;;;;;5029057;28;20184;-75
2021/12/04 08:04:47;;;;;;;10.27;8.97;;;;;;;;;;5030086;28;20218;-75
2021/12/04 08:07:12;;;;;;;12.60;9.83;;;;;;;;;;5024576;28;20563;-76
2021/12/04 08:09:38;;;;;;;10.73;9.50;;;;;;;;;;5029630;28;20180;-75
2021/12/04 08:12:03;;;;;;;14.27;10.07;;;;;;;;;;5027774;28;20176;-75
2021/12/04 08:14:28;;;;;;;12.13;10.10;;;;;;;;;;5033971;28;20204;-72
2021/12/04 08:16:54;;;;;;;11.57;9.13;;;;;;;;;;5031173;28;20190;-72
2021/12/04 08:19:19;;;;;;;12.40;10.83;;;;;;;;;;5033092;28;20692;-73
2021/12/04 08:21:45;;;;;;;12.90;9.47;;;;;;;;;;5032016;28;20671;-75
2021/12/04 08:24:10;;;;;;;14.37;11.47;;;;;;;;;;5030030;28;20265;-74
2021/12/04 08:26:36;;;;;;;14.10;10.47;;;;;;;;;;5025969;28;20310;-70
2021/12/04 08:29:03;;;;;;;11.40;9.50;;;;;;;;;;5023502;28;20666;-73
2021/12/04 08:31:28;;;;;;;13.87;10.13;;;;;;;;;;5022644;28;20430;-75
2021/12/04 08:33:53;;;;;;;14.20;11.07;;;;;;;;;;5037308;28;20934;-75
2021/12/04 08:36:19;;;;;;;14.00;11.53;;;;;;;;;;5028500;28;20239;-72
2021/12/04 08:38:47;;;;;;;10.97;8.90;;;;;;;;;;5027477;28;20608;-72
2021/12/04 08:41:12;;;;;;;18.67;12.13;;;;;;;;;;5028030;28;20835;-75
2021/12/04 08:43:37;;;;;;;18.07;12.80;;;;;;;;;;5029254;28;20460;-75
2021/12/04 08:46:06;;;;;;;15.00;11.40;;;;;;;;;;5023154;28;20214;-75
2021/12/04 08:48:33;;;;;;;16.07;11.40;;;;;;;;;;5027288;28;20663;-74
2021/12/04 08:50:59;;;;;;;17.37;13.20;;;;;;;;;;5022055;28;20445;-74
2021/12/04 08:53:24;;;;;;;20.07;13.47;;;;;;;;;;5026761;28;20454;-73
2021/12/04 08:55:50;;;;;;;15.90;11.73;;;;;;;;;;5028859;28;20459;-74
2021/12/04 08:58:15;;;;;;;18.20;12.13;;;;;;;;;;5026386;28;20180;-73
2021/12/04 09:00:52;;;;;;;16.17;12.80;;;;;;;;;;5026887;28;20237;-74
2021/12/04 09:03:22;;;;;;;16.63;12.80;;;;;;;;;;5027998;28;20219;-74
2021/12/04 09:05:50;;;;;;;15.70;13.67;;;;;;;;;;5031382;28;20502;-75
2021/12/04 09:08:16;;;;;;;15.00;12.03;;;;;;;;;;5026008;28;20431;-72
2021/12/04 09:10:42;;;;;;;16.73;12.37;;;;;;;;;;5030693;28;20435;-73
2021/12/04 09:13:08;;;;;;;16.23;12.60;;;;;;;;;;5025597;28;20183;-73
2021/12/04 09:15:35;;;;;;;14.53;12.20;;;;;;;;;;5027255;28;20466;-75
2021/12/04 09:18:00;;;;;;;13.60;11.97;;;;;;;;;;5024319;28;20184;-72
2021/12/04 09:20:28;;;;;;;14.03;12.40;;;;;;;;;;5033488;28;20419;-73
2021/12/04 09:22:54;;;;;;;15.67;11.13;;;;;;;;;;5042401;28;20188;-72
2021/12/04 09:25:24;;;;;;;14.80;11.10;;;;;;;;;;5027065;28;20518;-72
2021/12/04 09:31:09;;;;;;;13.77;11.40;;;;;;;;;;5031041;28;20454;-75
2021/12/04 09:36:32;;;;;;;12.40;10.70;;;;;;;;;;5033734;28;20468;-73
2021/12/04 10:04:06;;;;;;;9.57;8.20;;;;;;;;;;5038185;28;20552;-72
2021/12/04 10:15:28;;;;;;;9.33;8.53;;;;;;;;;;5017944;28;20474;-74
2021/12/04 10:20:39;;;;;;;10.10;9.17;;;;;;;;;;5034136;28;20422;-74
2021/12/04 10:23:33;;;;;;;11.10;10.00;;;;;;;;;;5032404;28;20426;-75
2021/12/04 10:34:14;;;;;;;13.23;11.83;;;;;;;;;;5033000;28;20468;-72
2021/12/04 10:36:40;;;;;;;12.77;11.50;;;;;;;;;;5027573;28;21085;-71
2021/12/04 10:39:08;;;;;;;12.13;10.80;;;;;;;;;;5035445;28;20188;-73
2021/12/04 10:41:39;;;;;;;12.67;11.37;;;;;;;;;;5035696;28;20427;-72
2021/12/04 10:44:25;;;;;;;13.77;11.50;;;;;;;;;;5040489;28;20469;-72
2021/12/04 10:46:54;;;;;;;13.37;11.97;;;;;;;;;;5016935;28;20517;-75
2021/12/04 10:49:35;;;;;;;12.67;11.27;;;;;;;;;;5027544;28;20439;-72
2021/12/04 10:52:03;;;;;;;14.27;11.20;;;;;;;;;;5035021;28;20444;-73
2021/12/04 10:54:33;;;;;;;13.37;11.97;;;;;;;;;;5033160;28;20462;-75
2021/12/04 10:59:58;;;;;;;12.40;11.20;;;;;;;;;;5034820;28;20877;-74
2021/12/04 11:02:34;;;;;;;13.37;11.47;;;;;;;;;;5032264;28;20415;-75
2021/12/04 11:05:15;;;;;;;12.53;11.23;;;;;;;;;;5030191;28;20466;-75
2021/12/04 11:18:35;;;;;;;11.93;10.33;;;;;;;;;;5028326;28;20441;-74
2021/12/04 11:22:19;;;;;;;16.53;14.40;;;;;;;;;;5005870;28;20426;-71
2021/12/04 11:43:18;;;;;;;25.20;20.00;;;;;;;;;;5028625;28;20451;-73
2021/12/04 11:46:13;;;;;;;27.00;20.63;;;;;;;;;;5031880;28;21046;-73
2021/12/04 11:48:40;;;;;;;28.87;20.93;;;;;;;;;;5031168;28;20430;-75
2021/12/04 11:51:11;;;;;;;29.70;21.07;;;;;;;;;;5033914;28;20522;-73
2021/12/04 11:53:36;;;;;;;27.20;20.43;;;;;;;;;;5027448;28;20455;-73
2021/12/04 11:56:02;;;;;;;28.87;19.83;;;;;;;;;;5028781;28;20830;-73
2021/12/04 11:58:40;;;;;;;29.43;21.50;;;;;;;;;;5022427;28;20176;-73
2021/12/04 12:01:06;;;;;;;27.93;21.07;;;;;;;;;;5029658;28;20168;-73
2021/12/04 12:03:34;;;;;;;27.50;21.83;;;;;;;;;;5027851;28;20461;-73
2021/12/04 12:06:01;;;;;;;25.40;20.00;;;;;;;;;;5031444;28;20530;-72
2021/12/04 12:08:26;;;;;;;27.60;21.00;;;;;;;;;;5028230;28;21047;-73
2021/12/04 12:10:54;;;;;;;28.47;21.70;;;;;;;;;;5031762;28;20434;-75
2021/12/04 12:13:46;;;;;;;33.00;22.93;;;;;;;;;;5031129;28;20197;-73
2021/12/04 12:16:16;;;;;;;26.70;20.00;;;;;;;;;;5031096;28;20925;-72
2021/12/04 12:18:52;;;;;;;32.67;21.20;;;;;;;;;;5029664;28;20511;-71
2021/12/04 12:21:21;;;;;;;29.87;21.27;;;;;;;;;;5034438;28;20485;-72
2021/12/04 12:26:52;;;;;;;27.07;19.50;;;;;;;;;;5032310;28;20898;-73
2021/12/04 12:32:23;;;;;;;26.10;18.00;;;;;;;;;;5035671;28;20779;-72
2021/12/04 12:37:16;;;;;;;30.13;20.13;;;;;;;;;;5029381;28;20427;-73
2021/12/04 12:40:12;;;;;;;27.27;20.23;;;;;;;;;;5033769;28;20180;-73
2021/12/04 12:42:38;;;;;;;26.70;18.77;;;;;;;;;;5025485;28;20422;-73
2021/12/04 12:45:14;;;;;;;24.40;17.90;;;;;;;;;;5031302;28;20447;-73
2021/12/04 12:47:51;;;;;;;22.97;17.90;;;;;;;;;;5028447;28;20429;-74
2021/12/04 12:50:32;;;;;;;37.23;20.20;;;;;;;;;;5029704;28;20491;-71
2021/12/04 12:53:08;;;;;;;24.20;17.90;;;;;;;;;;5025685;28;20439;-74
2021/12/04 12:55:35;;;;;;;27.53;18.33;;;;;;;;;;5030080;28;20454;-74
2021/12/04 12:58:12;;;;;;;29.50;19.23;;;;;;;;;;5029375;28;20473;-71
2021/12/04 13:11:57;;;;;;;25.97;18.63;;;;;;;;;;5027272;28;20514;-73
2021/12/04 13:14:25;;;;;;;23.83;17.23;;;;;;;;;;5026722;28;20540;-71
2021/12/04 13:17:02;;;;;;;35.53;21.73;;;;;;;;;;5022354;28;20539;-73
2021/12/04 13:19:27;;;;;;;22.87;17.07;;;;;;;;;;5020069;28;20491;-72
2021/12/04 13:21:55;;;;;;;28.87;20.73;;;;;;;;;;5029877;28;20427;-73
2021/12/04 13:24:27;;;;;;;23.13;17.90;;;;;;;;;;5021729;28;22266;-71
2021/12/04 13:26:53;;;;;;;23.30;16.83;;;;;;;;;;5029916;28;20513;-72
2021/12/04 13:29:21;;;;;;;19.77;15.43;;;;;;;;;;5026490;28;20915;-73
2021/12/04 13:31:47;;;;;;;23.60;16.47;;;;;;;;;;5031657;28;20515;-73
2021/12/04 13:34:20;;;;;;;21.50;15.80;;;;;;;;;;5029416;28;20743;-74
2021/12/04 13:36:45;;;;;;;20.47;14.30;;;;;;;;;;5033338;28;20199;-73
2021/12/04 13:39:12;;;;;;;20.53;15.20;;;;;;;;;;5030337;28;20450;-72
2021/12/04 13:41:39;;;;;;;18.70;14.07;;;;;;;;;;5031271;28;20670;-72
2021/12/04 13:44:06;;;;;;;19.30;14.90;;;;;;;;;;5033516;28;20604;-73
2021/12/04 13:46:59;;;;;;;18.43;14.97;;;;;;;;;;5035701;28;21117;-71
2021/12/04 13:49:32;;;;;;;20.00;14.97;;;;;;;;;;5031584;28;20466;-72
2021/12/04 13:52:01;;;;;;;21.50;15.60;;;;;;;;;;5030722;28;20934;-73
2021/12/04 13:54:27;;;;;;;17.87;14.60;;;;;;;;;;5032150;28;20453;-73
2021/12/04 13:56:52;;;;;;;19.43;14.50;;;;;;;;;;5030937;28;20950;-73
2021/12/04 13:59:25;;;;;;;22.83;15.40;;;;;;;;;;5033581;28;20457;-73
2021/12/04 14:01:51;;;;;;;21.17;15.43;;;;;;;;;;5029662;28;20191;-75
2021/12/04 14:04:17;;;;;;;18.67;15.27;;;;;;;;;;5030442;28;20466;-73
2021/12/04 14:06:55;;;;;;;20.40;15.10;;;;;;;;;;5033927;28;20481;-72
2021/12/04 14:09:30;;;;;;;18.20;14.20;;;;;;;;;;5032434;28;20183;-74
2021/12/04 14:11:55;;;;;;;18.87;15.40;;;;;;;;;;5034507;28;20798;-73
2021/12/04 14:14:25;;;;;;;24.10;15.03;;;;;;;;;;5030356;28;20462;-73
2021/12/04 14:16:53;;;;;;;20.47;14.83;;;;;;;;;;5034760;28;20192;-73
2021/12/04 14:19:19;;;;;;;18.17;13.97;;;;;;;;;;5030851;28;20458;-74
2021/12/04 14:22:11;;;;;;;16.73;13.90;;;;;;;;;;5036333;28;20505;-74
2021/12/04 14:24:44;;;;;;;19.10;13.80;;;;;;;;;;5024340;28;20468;-72
2021/12/04 14:27:11;;;;;;;17.43;13.80;;;;;;;;;;5023313;28;20441;-72
2021/12/04 14:29:38;;;;;;;17.23;13.03;;;;;;;;;;5024969;28;20484;-74
2021/12/04 14:32:03;;;;;;;20.53;14.30;;;;;;;;;;5025099;28;20450;-74
2021/12/04 14:34:30;;;;;;;22.10;13.83;;;;;;;;;;5031222;28;20508;-73
2021/12/04 14:37:13;;;;;;;17.00;12.67;;;;;;;;;;5039169;28;20616;-74
2021/12/04 14:39:40;;;;;;;19.90;14.40;;;;;;;;;;5030704;28;20434;-70
2021/12/04 14:42:13;;;;;;;18.20;13.60;;;;;;;;;;5036355;28;20445;-71
2021/12/04 14:44:39;;;;;;;19.07;14.03;;;;;;;;;;5031531;28;20468;-73
2021/12/04 14:47:05;;;;;;;18.80;14.10;;;;;;;;;;5041914;28;20439;-74
2021/12/04 14:49:30;;;;;;;18.13;13.77;;;;;;;;;;5026853;28;20683;-73
2021/12/04 14:51:56;;;;;;;18.10;13.10;;;;;;;;;;5027113;28;20500;-74
2021/12/04 14:54:28;;;;;;;18.27;13.37;;;;;;;;;;5033367;28;20211;-73
2021/12/04 14:56:53;;;;;;;17.20;14.03;;;;;;;;;;5024646;28;20238;-74
2021/12/04 14:59:19;;;;;;;18.77;14.33;;;;;;;;;;5024886;28;21098;-72
2021/12/04 15:01:44;;;;;;;24.27;16.33;;;;;;;;;;5023180;28;20187;-73
2021/12/04 15:04:10;;;;;;;23.30;15.70;;;;;;;;;;5019844;28;20774;-71
2021/12/04 15:06:39;;;;;;;19.00;13.13;;;;;;;;;;5035224;28;20226;-73
2021/12/04 15:09:10;;;;;;;20.30;13.37;;;;;;;;;;5023328;28;20234;-74
2021/12/04 15:11:37;;;;;;;19.73;14.70;;;;;;;;;;5027401;28;20439;-71
2021/12/04 15:14:08;;;;;;;18.00;13.70;;;;;;;;;;5025550;28;20469;-72
2021/12/04 15:16:38;;;;;;;19.73;14.33;;;;;;;;;;5032800;28;20459;-69
2021/12/04 15:19:26;;;;;;;22.00;15.20;;;;;;;;;;5030479;28;20438;-71
2021/12/04 15:21:56;;;;;;;25.23;15.50;;;;;;;;;;5030992;28;20429;-70
2021/12/04 15:24:24;;;;;;;19.30;14.90;;;;;;;;;;5033021;28;20454;-71
2021/12/04 15:26:51;;;;;;;17.70;13.30;;;;;;;;;;5030131;28;20453;-71
2021/12/04 15:29:17;;;;;;;21.40;14.40;;;;;;;;;;5032609;28;20474;-71
2021/12/04 15:31:43;;;;;;;22.90;14.00;;;;;;;;;;5036529;28;21139;-71
2021/12/04 15:34:08;;;;;;;22.20;13.67;;;;;;;;;;5030085;28;20481;-71
2021/12/04 15:36:38;;;;;;;21.20;14.00;;;;;;;;;;5032411;28;20223;-72
2021/12/04 15:39:09;;;;;;;23.90;15.70;;;;;;;;;;5030985;28;20211;-72
2021/12/04 15:42:11;;;;;;;22.20;14.73;;;;;;;;;;5031086;28;20439;-73
2021/12/04 15:44:49;;;;;;;23.70;14.93;;;;;;;;;;5032750;28;20459;-71
2021/12/04 15:47:43;;;;;;;22.83;14.13;;;;;;;;;;5030939;28;20438;-72
2021/12/04 15:50:30;;;;;;;26.60;15.40;;;;;;;;;;5031429;28;20445;-72
2021/12/04 15:53:02;;;;;;;24.30;15.57;;;;;;;;;;5029614;28;20447;-73
2021/12/04 15:55:33;;;;;;;23.60;16.97;;;;;;;;;;5030965;28;20466;-74
2021/12/04 15:58:01;;;;;;;21.57;14.67;;;;;;;;;;5043334;28;20848;-75
2021/12/04 16:00:30;;;;;;;25.67;17.50;;;;;;;;;;5027570;28;20443;-72
2021/12/04 16:02:58;;;;;;;38.53;23.10;;;;;;;;;;5025955;28;20431;-72
2021/12/04 16:05:25;;;;;;;32.63;20.23;;;;;;;;;;5030638;28;20490;-70
2021/12/04 16:07:59;;;;;;;47.83;33.57;;;;;;;;;;5031980;28;20437;-71
2021/12/04 16:10:25;;;;;;;39.90;23.97;;;;;;;;;;5029269;28;20528;-71
2021/12/04 16:12:52;;;;;;;29.50;20.10;;;;;;;;;;5038970;28;21171;-70
2021/12/04 16:15:19;;;;;;;31.27;20.10;;;;;;;;;;5028113;28;20203;-73
2021/12/04 16:17:45;;;;;;;34.17;20.90;;;;;;;;;;5027151;28;20439;-70
2021/12/04 16:20:13;;;;;;;30.30;20.33;;;;;;;;;;5028144;28;20430;-70
2021/12/04 16:22:41;;;;;;;31.50;19.73;;;;;;;;;;5029731;28;20513;-71
2021/12/04 16:25:11;;;;;;;38.30;22.07;;;;;;;;;;5030287;28;20461;-71
2021/12/04 16:27:49;;;;;;;34.50;22.20;;;;;;;;;;5029382;28;20472;-71
2021/12/04 16:32:59;;;;;;;41.13;25.50;;;;;;;;;;5030533;28;20431;-72
2021/12/04 16:37:58;;;;;;;32.17;23.03;;;;;;;;;;5030524;28;20542;-70
2021/12/04 16:40:27;;;;;;;30.90;19.97;;;;;;;;;;5020360;28;20521;-70
2021/12/04 16:43:01;;;;;;;29.63;20.53;;;;;;;;;;5019745;28;20908;-72
2021/12/04 16:45:26;;;;;;;29.00;20.50;;;;;;;;;;5022507;28;20957;-70
2021/12/04 16:47:54;;;;;;;28.23;20.70;;;;;;;;;;5024958;28;20553;-74
2021/12/04 16:50:23;;;;;;;28.33;20.63;;;;;;;;;;5021720;28;20176;-70
2021/12/04 16:58:12;;;;;;;25.23;19.03;;;;;;;;;;5025267;28;20934;-72
2021/12/04 17:00:38;;;;;;;27.33;19.70;;;;;;;;;;5027178;28;20430;-71
2021/12/04 17:03:03;;;;;;;24.20;18.50;;;;;;;;;;5029902;28;20439;-71
2021/12/04 17:05:33;;;;;;;25.47;18.40;;;;;;;;;;5025584;28;20179;-71
2021/12/04 17:07:59;;;;;;;27.40;19.47;;;;;;;;;;5024384;28;20183;-71
2021/12/04 17:10:25;;;;;;;22.20;17.33;;;;;;;;;;5019518;28;20508;-71
2021/12/04 17:12:51;;;;;;;21.50;17.77;;;;;;;;;;5013691;28;20335;-72
2021/12/04 17:15:16;;;;;;;23.70;18.30;;;;;;;;;;5029001;28;20914;-72
2021/12/04 17:17:44;;;;;;;25.83;18.73;;;;;;;;;;5017522;28;20184;-70
2021/12/04 17:20:10;;;;;;;23.40;17.67;;;;;;;;;;5022599;28;20219;-69
2021/12/04 17:22:35;;;;;;;27.17;18.30;;;;;;;;;;5021875;28;20437;-69
2021/12/04 17:25:01;;;;;;;24.73;19.00;;;;;;;;;;5023163;28;20918;-70
2021/12/04 17:27:26;;;;;;;21.57;17.80;;;;;;;;;;5022859;28;21136;-69
2021/12/04 17:29:52;;;;;;;24.87;18.17;;;;;;;;;;5022149;28;20199;-70